createdAt,value
2023-11-01T00:00:45.167Z,3.30
2023-11-01T00:03:32.702Z,3.30
2023-11-01T00:06:00.692Z,3.30
2023-11-01T00:08:28.601Z,3.80
2023-11-01T00:10:56.995Z,4.20
2023-11-01T00:13:24.782Z,4.40
2023-11-01T00:15:52.517Z,4.20
2023-11-01T00:18:20.573Z,4.00
2023-11-01T00:20:48.470Z,4.10
2023-11-01T00:23:16.354Z,4.60
2023-11-01T00:25:44.258Z,4.30
2023-11-01T00:28:11.996Z,5.00
2023-11-01T00:30:39.763Z,4.40
2023-11-01T00:33:07.595Z,5.10
2023-11-01T00:35:35.292Z,4.90
2023-11-01T00:38:07.155Z,4.70
2023-11-01T00:40:35.001Z,4.30
2023-11-01T00:43:04.920Z,4.10
2023-11-01T00:45:32.673Z,4.90
2023-11-01T00:48:00.463Z,4.70
2023-11-01T00:50:31.818Z,4.50
2023-11-01T00:52:59.971Z,4.50
2023-11-01T00:55:27.778Z,4.40
2023-11-01T00:57:55.534Z,4.60
2023-11-01T01:00:23.854Z,5.00
2023-11-01T01:02:52.545Z,4.70
2023-11-01T01:05:20.760Z,3.90
2023-11-01T01:07:48.531Z,4.30
2023-11-01T01:10:17.001Z,4.50
2023-11-01T01:12:45.641Z,4.40
2023-11-01T01:15:13.433Z,4.60
2023-11-01T01:17:41.241Z,4.40
2023-11-01T01:20:10.156Z,4.60
2023-11-01T01:22:38.214Z,4.50
2023-11-01T01:25:06.408Z,4.10
2023-11-01T01:27:34.238Z,4.00
2023-11-01T01:30:02.214Z,4.50
2023-11-01T01:32:34.397Z,4.10
2023-11-01T01:35:02.303Z,4.30
2023-11-01T01:37:30.188Z,4.00
2023-11-01T01:39:57.958Z,4.10
2023-11-01T01:42:25.775Z,4.90
2023-11-01T01:44:54.245Z,3.80
2023-11-01T01:47:22.142Z,3.80
2023-11-01T01:49:51.826Z,4.10
2023-11-01T01:52:21.078Z,4.30
2023-11-01T01:54:50.158Z,4.30
2023-11-01T01:57:28.136Z,3.50
2023-11-01T01:59:58.073Z,3.60
2023-11-01T02:02:26.684Z,3.40
2023-11-01T02:04:55.525Z,3.90
2023-11-01T02:07:23.289Z,3.70
2023-11-01T02:09:51.125Z,3.20
2023-11-01T02:12:19.429Z,3.40
2023-11-01T02:14:47.246Z,4.10
2023-11-01T02:17:15.035Z,3.80
2023-11-01T02:19:42.789Z,3.60
2023-11-01T02:22:10.567Z,3.80
2023-11-01T02:24:38.317Z,3.50
2023-11-01T02:27:06.180Z,3.00
2023-11-01T02:29:33.965Z,3.30
2023-11-01T02:32:01.810Z,2.90
2023-11-01T02:34:30.173Z,3.00
2023-11-01T02:36:57.946Z,2.60
2023-11-01T02:39:25.684Z,3.00
2023-11-01T02:41:53.432Z,2.90
2023-11-01T02:44:21.207Z,3.00
2023-11-01T02:46:50.148Z,3.20
2023-11-01T02:49:17.830Z,2.90
2023-11-01T02:51:45.561Z,4.20
2023-11-01T02:54:13.308Z,3.30
2023-11-01T02:56:41.359Z,3.30
2023-11-01T02:59:09.182Z,3.20
2023-11-01T03:01:37.627Z,2.90
2023-11-01T03:04:05.546Z,3.50
2023-11-01T03:06:33.351Z,3.20
2023-11-01T03:09:01.075Z,3.20
2023-11-01T03:11:28.831Z,3.70
2023-11-01T03:13:56.604Z,2.80
2023-11-01T03:16:24.394Z,2.80
2023-11-01T03:18:52.125Z,2.80
2023-11-01T03:21:19.833Z,2.50
2023-11-01T03:23:47.737Z,2.20
2023-11-01T03:26:15.434Z,2.30
2023-11-01T03:28:43.173Z,2.60
2023-11-01T03:31:10.903Z,2.40
2023-11-01T03:33:38.671Z,2.70
2023-11-01T03:36:09.362Z,2.30
2023-11-01T03:38:37.495Z,2.70
2023-11-01T03:41:05.689Z,2.40
2023-11-01T03:43:34.930Z,2.20
2023-11-01T03:46:03.654Z,1.70
2023-11-01T03:48:31.625Z,2.10
2023-11-01T03:50:59.485Z,2.10
2023-11-01T03:53:27.847Z,1.70
2023-11-01T03:55:55.581Z,1.80
2023-11-01T03:58:23.726Z,1.60
2023-11-01T04:00:51.697Z,1.60
2023-11-01T04:03:19.535Z,1.90
2023-11-01T04:05:47.488Z,2.20
2023-11-01T04:08:15.295Z,2.20
2023-11-01T04:10:43.080Z,2.20
2023-11-01T04:13:11.690Z,2.20
2023-11-01T04:15:39.452Z,2.10
2023-11-01T04:18:07.921Z,2.30
2023-11-01T04:20:35.793Z,2.10
2023-11-01T04:23:04.071Z,1.80
2023-11-01T04:25:31.786Z,1.90
2023-11-01T04:27:59.965Z,2.30
2023-11-01T04:30:27.767Z,2.50
2023-11-01T04:32:55.588Z,2.70
2023-11-01T04:35:23.297Z,2.60
2023-11-01T04:37:51.054Z,2.70
2023-11-01T04:40:20.018Z,2.50
2023-11-01T04:42:47.733Z,2.40
2023-11-01T04:45:16.191Z,2.60
2023-11-01T04:47:44.620Z,2.10
2023-11-01T04:50:13.273Z,2.20
2023-11-01T04:52:42.184Z,2.10
2023-11-01T04:55:11.629Z,2.20
2023-11-01T04:57:39.412Z,2.20
2023-11-01T05:00:12.403Z,2.40
2023-11-01T05:02:40.302Z,2.30
2023-11-01T05:05:09.624Z,2.00
2023-11-01T05:07:38.825Z,1.80
2023-11-01T05:10:07.482Z,1.80
2023-11-01T05:12:35.391Z,1.80
2023-11-01T05:15:03.684Z,1.30
2023-11-01T05:17:31.502Z,1.20
2023-11-01T05:19:59.319Z,1.80
2023-11-01T05:22:27.187Z,1.20
2023-11-01T05:24:55.057Z,1.00
2023-11-01T05:27:22.775Z,1.00
2023-11-01T05:29:50.518Z,1.40
2023-11-01T05:32:18.614Z,1.40
2023-11-01T05:34:46.770Z,1.50
2023-11-01T05:37:14.601Z,1.90
2023-11-01T05:39:43.001Z,1.60
2023-11-01T05:42:10.769Z,2.00
2023-11-01T05:44:38.626Z,1.90
2023-11-01T05:47:06.495Z,2.10
2023-11-01T05:49:34.209Z,2.10
2023-11-01T05:52:01.911Z,1.90
2023-11-01T05:54:29.671Z,2.10
2023-11-01T05:56:57.331Z,1.90
2023-11-01T05:59:25.288Z,1.90
2023-11-01T06:01:54.208Z,2.00
2023-11-01T06:04:22.293Z,2.00
2023-11-01T06:06:50.237Z,1.90
2023-11-01T06:09:20.738Z,2.50
2023-11-01T06:11:48.859Z,1.70
2023-11-01T06:14:16.816Z,1.70
2023-11-01T06:16:44.683Z,1.90
2023-11-01T06:19:12.999Z,1.60
2023-11-01T06:21:40.920Z,1.70
2023-11-01T06:24:09.141Z,1.50
2023-11-01T06:26:37.065Z,1.50
2023-11-01T06:29:04.866Z,1.40
2023-11-01T06:31:32.683Z,1.80
2023-11-01T06:34:00.563Z,1.50
2023-11-01T06:36:28.526Z,1.50
2023-11-01T06:38:56.311Z,1.40
2023-11-01T06:41:26.348Z,1.30
2023-11-01T06:43:55.364Z,1.20
2023-11-01T06:46:24.325Z,1.40
2023-11-01T06:48:52.200Z,1.30
2023-11-01T06:51:19.955Z,1.00
2023-11-01T06:53:47.792Z,1.10
2023-11-01T06:56:15.755Z,1.30
2023-11-01T06:58:45.022Z,1.20
2023-11-01T07:01:12.940Z,1.60
2023-11-01T07:03:40.974Z,1.40
2023-11-01T07:06:09.424Z,1.50
2023-11-01T07:08:39.078Z,1.20
2023-11-01T07:11:06.821Z,1.70
2023-11-01T07:13:34.635Z,1.60
2023-11-01T07:16:02.615Z,1.40
2023-11-01T07:18:30.614Z,1.80
2023-11-01T07:20:58.442Z,1.50
2023-11-01T07:23:27.668Z,1.60
2023-11-01T07:25:55.521Z,1.70
2023-11-01T07:28:23.487Z,1.60
2023-11-01T07:30:51.223Z,1.80
2023-11-01T07:33:19.593Z,1.60
2023-11-01T07:35:47.380Z,1.40
2023-11-01T07:38:15.872Z,1.50
2023-11-01T07:40:43.886Z,1.30
2023-11-01T07:43:11.672Z,1.30
2023-11-01T07:45:39.974Z,1.30
2023-11-01T07:48:07.864Z,1.40
2023-11-01T07:50:36.204Z,1.80
2023-11-01T07:53:04.169Z,1.60
2023-11-01T07:55:32.177Z,1.50
2023-11-01T07:57:59.986Z,1.50
2023-11-01T08:00:27.854Z,1.80
2023-11-01T08:02:56.894Z,1.80
2023-11-01T08:05:25.495Z,1.50
2023-11-01T08:07:54.353Z,2.50
2023-11-01T08:10:22.535Z,1.90
2023-11-01T08:12:51.846Z,2.20
2023-11-01T08:15:19.642Z,2.20
2023-11-01T08:17:47.492Z,2.20
2023-11-01T08:20:15.468Z,2.00
2023-11-01T08:22:43.573Z,2.30
2023-11-01T08:25:12.771Z,2.30
2023-11-01T08:27:40.610Z,2.40
2023-11-01T08:30:09.750Z,2.20
2023-11-01T08:32:37.815Z,2.30
2023-11-01T08:35:07.493Z,2.70
2023-11-01T08:37:38.617Z,3.20
2023-11-01T08:40:07.320Z,2.70
2023-11-01T08:42:35.492Z,3.00
2023-11-01T08:45:03.520Z,2.90
2023-11-01T08:47:43.883Z,3.00
2023-11-01T08:50:15.319Z,3.10
2023-11-01T08:52:44.634Z,3.60
2023-11-01T08:55:14.525Z,3.50
2023-11-01T08:57:45.403Z,3.50
2023-11-01T09:00:15.063Z,2.90
2023-11-01T09:02:43.209Z,3.40
2023-11-01T09:05:11.239Z,3.00
2023-11-01T09:07:40.242Z,3.10
2023-11-01T09:10:11.220Z,2.90
2023-11-01T09:12:39.087Z,3.70
2023-11-01T09:15:07.488Z,3.20
2023-11-01T09:17:35.386Z,3.80
2023-11-01T09:20:03.350Z,2.90
2023-11-01T09:22:31.632Z,2.80
2023-11-01T09:24:59.668Z,3.10
2023-11-01T09:27:27.641Z,3.00
2023-11-01T09:29:55.757Z,3.20
2023-11-01T09:32:23.664Z,3.20
2023-11-01T09:34:53.414Z,3.20
2023-11-01T09:37:23.098Z,3.40
2023-11-01T09:39:50.865Z,3.20
2023-11-01T09:42:22.433Z,3.20
2023-11-01T09:44:57.200Z,3.10
2023-11-01T09:47:26.779Z,3.40
2023-11-01T09:49:58.328Z,3.30
2023-11-01T09:52:28.010Z,3.00
2023-11-01T09:54:55.737Z,3.10
2023-11-01T09:57:25.688Z,3.10
2023-11-01T09:59:54.371Z,3.20
2023-11-01T10:02:22.933Z,2.80
2023-11-01T10:04:51.525Z,2.50
2023-11-01T10:07:19.334Z,6.50
2023-11-01T10:09:47.518Z,6.40
2023-11-01T10:12:15.279Z,3.30
2023-11-01T10:14:43.958Z,3.10
2023-11-01T10:17:11.757Z,3.10
2023-11-01T10:19:43.002Z,2.80
2023-11-01T10:22:13.424Z,2.50
2023-11-01T10:24:43.700Z,2.60
2023-11-01T10:27:11.934Z,2.80
2023-11-01T10:29:44.429Z,2.90
2023-11-01T10:32:13.965Z,2.60
2023-11-01T10:34:42.085Z,2.70
2023-11-01T10:37:10.181Z,3.10
2023-11-01T10:39:41.276Z,3.90
2023-11-01T10:42:09.831Z,3.70
2023-11-01T10:44:37.712Z,4.90
2023-11-01T10:47:07.086Z,3.60
2023-11-01T10:49:35.756Z,3.80
2023-11-01T10:52:04.866Z,4.10
2023-11-01T10:54:33.440Z,4.30
2023-11-01T10:57:01.892Z,3.90
2023-11-01T10:59:53.789Z,3.50
2023-11-01T11:02:24.621Z,2.70
2023-11-01T11:04:58.995Z,3.30
2023-11-01T11:07:49.798Z,3.60
2023-11-01T11:10:34.765Z,2.20
2023-11-01T11:13:09.157Z,3.20
2023-11-01T11:15:52.785Z,9.00
2023-11-01T11:18:23.111Z,4.20
2023-11-01T11:20:52.657Z,10.80
2023-11-01T11:23:23.290Z,7.40
2023-11-01T11:25:52.682Z,6.20
2023-11-01T11:28:23.591Z,3.50
2023-11-01T11:31:17.223Z,3.90
2023-11-01T11:33:45.376Z,9.00
2023-11-01T11:36:21.324Z,3.40
2023-11-01T11:39:11.429Z,3.30
2023-11-01T11:41:39.430Z,4.10
2023-11-01T11:44:14.277Z,4.00
2023-11-01T11:46:50.240Z,9.60
2023-11-01T11:49:24.691Z,7.70
2023-11-01T11:52:03.028Z,4.60
2023-11-01T11:54:32.165Z,21.60
2023-11-01T11:57:03.959Z,5.30
2023-11-01T11:59:33.223Z,23.00
2023-11-01T12:02:27.301Z,22.00
2023-11-01T12:04:55.451Z,11.60
2023-11-01T12:07:24.750Z,7.00
2023-11-01T12:09:53.313Z,6.00
2023-11-01T12:12:22.410Z,5.40
2023-11-01T12:15:01.625Z,6.40
2023-11-01T12:17:30.551Z,12.70
2023-11-01T12:19:58.906Z,7.60
2023-11-01T12:22:26.753Z,8.10
2023-11-01T12:24:56.668Z,7.10
2023-11-01T12:27:31.891Z,7.40
2023-11-01T12:30:01.961Z,13.30
2023-11-01T12:32:35.271Z,12.30
2023-11-01T12:35:07.312Z,10.80
2023-11-01T12:37:36.721Z,8.30
2023-11-01T12:40:12.180Z,7.30
2023-11-01T12:42:42.346Z,9.70
2023-11-01T12:45:11.590Z,6.70
2023-11-01T12:47:58.053Z,7.90
2023-11-01T12:50:29.073Z,6.20
2023-11-01T12:52:57.129Z,6.20
2023-11-01T12:55:29.269Z,6.10
2023-11-01T12:58:00.376Z,6.30
2023-11-01T13:00:30.236Z,6.10
2023-11-01T13:02:58.619Z,7.50
2023-11-01T13:05:26.846Z,7.80
2023-11-01T13:07:57.983Z,8.90
2023-11-01T13:10:26.091Z,7.70
2023-11-01T13:12:54.057Z,8.70
2023-11-01T13:15:22.910Z,7.70
2023-11-01T13:17:50.979Z,8.00
2023-11-01T13:20:19.103Z,7.70
2023-11-01T13:22:46.826Z,7.40
2023-11-01T13:25:14.795Z,7.30
2023-11-01T13:27:42.608Z,8.20
2023-11-01T13:30:11.104Z,7.20
2023-11-01T13:32:39.007Z,6.20
2023-11-01T13:35:07.366Z,6.50
2023-11-01T13:37:35.247Z,7.00
2023-11-01T13:40:04.683Z,7.70
2023-11-01T13:42:32.357Z,7.10
2023-11-01T13:45:00.123Z,6.70
2023-11-01T13:47:29.879Z,6.70
2023-11-01T13:49:58.921Z,6.40
2023-11-01T13:52:26.647Z,6.60
2023-11-01T13:54:54.866Z,5.90
2023-11-01T13:57:23.772Z,6.40
2023-11-01T13:59:51.831Z,6.00
2023-11-01T14:02:19.604Z,6.50
2023-11-01T14:04:47.410Z,6.80
2023-11-01T14:07:15.185Z,7.10
2023-11-01T14:09:44.594Z,6.50
2023-11-01T14:12:12.473Z,5.80
2023-11-01T14:14:40.897Z,6.60
2023-11-01T14:17:08.760Z,6.60
2023-11-01T14:19:36.494Z,6.60
2023-11-01T14:22:04.236Z,7.50
2023-11-01T14:24:31.925Z,7.10
2023-11-01T14:27:00.823Z,7.90
2023-11-01T14:29:28.837Z,8.20
2023-11-01T14:31:56.532Z,8.60
2023-11-01T14:34:28.182Z,8.30
2023-11-01T14:36:57.548Z,8.40
2023-11-01T14:39:26.224Z,7.00
2023-11-01T14:41:54.232Z,8.20
2023-11-01T14:44:22.025Z,7.80
2023-11-01T14:46:49.841Z,8.20
2023-11-01T14:49:17.608Z,8.80
2023-11-01T14:51:45.384Z,10.10
2023-11-01T14:54:15.999Z,9.00
2023-11-01T14:56:45.912Z,8.80
2023-11-01T14:59:13.932Z,9.20
2023-11-01T15:01:45.558Z,10.10
2023-11-01T15:04:13.421Z,9.80
2023-11-01T15:06:41.537Z,9.50
2023-11-01T15:09:09.415Z,9.90
2023-11-01T15:11:37.847Z,9.10
2023-11-01T15:14:05.621Z,10.10
2023-11-01T15:16:33.801Z,10.90
2023-11-01T15:19:01.554Z,12.50
2023-11-01T15:21:30.562Z,16.30
2023-11-01T15:23:59.401Z,17.40
2023-11-01T15:26:34.574Z,13.80
2023-11-01T15:29:05.806Z,14.10
2023-11-01T15:31:34.220Z,14.40
2023-11-01T15:34:01.987Z,21.10
2023-11-01T15:36:29.866Z,21.30
2023-11-01T15:38:57.699Z,19.00
2023-11-01T15:41:26.852Z,18.00
2023-11-01T15:43:55.814Z,19.50
2023-11-01T15:46:23.638Z,18.20
2023-11-01T15:48:51.342Z,19.50
2023-11-01T15:51:19.077Z,22.30
2023-11-01T15:53:48.284Z,23.90
2023-11-01T15:56:16.122Z,37.70
2023-11-01T15:58:43.880Z,22.60
2023-11-01T16:01:15.089Z,18.90
2023-11-01T16:03:43.599Z,15.90
2023-11-01T16:06:11.686Z,16.80
2023-11-01T16:08:39.439Z,17.30
2023-11-01T16:11:08.077Z,16.40
2023-11-01T16:13:35.909Z,16.10
2023-11-01T16:16:03.949Z,16.20
2023-11-01T16:18:31.782Z,15.90
2023-11-01T16:21:00.426Z,15.90
2023-11-01T16:23:28.311Z,15.20
2023-11-01T16:25:57.829Z,15.60
2023-11-01T16:28:25.950Z,15.10
2023-11-01T16:30:55.826Z,15.70
2023-11-01T16:33:24.133Z,16.00
2023-11-01T16:35:51.944Z,14.90
2023-11-01T16:38:19.731Z,14.80
2023-11-01T16:40:47.504Z,16.80
2023-11-01T16:43:15.513Z,17.60
2023-11-01T16:45:43.339Z,21.00
2023-11-01T16:48:11.194Z,23.60
2023-11-01T16:50:39.873Z,20.90
2023-11-01T16:53:07.778Z,22.10
2023-11-01T16:55:35.617Z,22.90
2023-11-01T16:58:03.441Z,23.10
2023-11-01T17:00:31.218Z,23.80
2023-11-01T17:02:59.034Z,24.30
2023-11-01T17:05:27.435Z,25.70
2023-11-01T17:07:56.323Z,26.20
2023-11-01T17:10:24.006Z,26.70
2023-11-01T17:12:51.824Z,26.10
2023-11-01T17:15:24.353Z,25.40
2023-11-01T17:17:55.850Z,25.80
2023-11-01T17:20:24.339Z,25.40
2023-11-01T17:22:57.543Z,24.70
2023-11-01T17:25:43.995Z,24.70
2023-11-01T17:28:23.629Z,24.10
2023-11-01T17:30:52.700Z,24.10
2023-11-01T17:33:33.983Z,23.30
2023-11-01T17:36:05.176Z,23.10
2023-11-01T17:38:41.705Z,22.80
2023-11-01T17:41:35.336Z,23.80
2023-11-01T17:44:03.248Z,24.20
2023-11-01T17:46:31.094Z,26.10
2023-11-01T17:49:00.758Z,27.60
2023-11-01T17:51:31.044Z,29.70
2023-11-01T17:53:59.452Z,31.70
2023-11-01T17:56:27.238Z,31.10
2023-11-01T17:58:56.846Z,32.30
2023-11-01T18:01:30.918Z,30.00
2023-11-01T18:03:58.778Z,32.10
2023-11-01T18:06:26.666Z,32.00
2023-11-01T18:08:54.467Z,31.70
2023-11-01T18:11:24.740Z,37.30
2023-11-01T18:13:52.512Z,35.10
2023-11-01T18:16:25.342Z,32.70
2023-11-01T18:18:56.422Z,33.30
2023-11-01T18:21:31.787Z,32.50
2023-11-01T18:24:07.160Z,33.20
2023-11-01T18:26:35.377Z,31.00
2023-11-01T18:29:12.056Z,32.30
2023-11-01T18:31:47.948Z,31.90
2023-11-01T18:34:24.129Z,34.20
2023-11-01T18:36:54.029Z,32.40
2023-11-01T18:39:23.705Z,33.50
2023-11-01T18:41:52.388Z,31.90
2023-11-01T18:44:33.390Z,31.90
2023-11-01T18:47:01.613Z,30.10
2023-11-01T18:49:47.833Z,30.30
2023-11-01T18:52:18.090Z,30.40
2023-11-01T18:54:47.941Z,28.30
2023-11-01T18:57:23.650Z,29.30
2023-11-01T18:59:51.457Z,29.10
2023-11-01T19:02:39.250Z,29.80
2023-11-01T19:05:10.213Z,28.90
2023-11-01T19:07:40.918Z,27.80
2023-11-01T19:10:23.115Z,28.10
2023-11-01T19:12:56.115Z,29.70
2023-11-01T19:15:36.053Z,29.40
2023-11-01T19:18:09.067Z,29.80
2023-11-01T19:20:39.332Z,28.10
2023-11-01T19:23:07.897Z,29.60
2023-11-01T19:25:35.654Z,28.50
2023-11-01T19:28:04.637Z,27.30
2023-11-01T19:30:32.796Z,27.30
2023-11-01T19:33:00.895Z,28.80
2023-11-01T19:35:30.075Z,28.40
2023-11-01T19:37:57.886Z,28.60
2023-11-01T19:40:25.563Z,28.20
2023-11-01T19:42:53.984Z,27.80
2023-11-01T19:45:21.829Z,27.50
2023-11-01T19:47:49.690Z,28.80
2023-11-01T19:50:25.722Z,28.60
2023-11-01T19:52:54.072Z,27.90
2023-11-01T19:55:22.395Z,27.30
2023-11-01T19:57:50.529Z,29.10
2023-11-01T20:00:18.431Z,27.50
2023-11-01T20:02:46.435Z,28.70
2023-11-01T20:05:14.457Z,28.70
2023-11-01T20:07:42.311Z,27.70
2023-11-01T20:10:10.913Z,28.10
2023-11-01T20:12:39.782Z,27.70
2023-11-01T20:15:13.736Z,28.50
2023-11-01T20:17:41.627Z,29.20
2023-11-01T20:20:11.167Z,27.90
2023-11-01T20:22:43.639Z,28.20
2023-11-01T20:25:12.828Z,27.90
2023-11-01T20:27:43.192Z,30.90
2023-11-01T20:30:11.221Z,30.20
2023-11-01T20:32:39.020Z,30.80
2023-11-01T20:35:07.021Z,32.10
2023-11-01T20:37:35.105Z,30.70
2023-11-01T20:40:03.131Z,31.70
2023-11-01T20:42:31.435Z,31.00
2023-11-01T20:44:59.276Z,28.90
2023-11-01T20:47:27.087Z,28.60
2023-11-01T20:49:54.914Z,29.10
2023-11-01T20:52:22.728Z,26.60
2023-11-01T20:54:57.768Z,27.30
2023-11-01T20:57:27.985Z,25.90
2023-11-01T20:59:55.833Z,26.70
2023-11-01T21:02:23.665Z,24.70
2023-11-01T21:04:51.423Z,25.80
2023-11-01T21:07:21.207Z,24.50
2023-11-01T21:09:49.585Z,24.60
2023-11-01T21:12:17.415Z,23.90
2023-11-01T21:14:45.193Z,24.20
2023-11-01T21:17:12.981Z,23.90
2023-11-01T21:19:43.921Z,22.50
2023-11-01T21:22:12.622Z,24.30
2023-11-01T21:24:41.549Z,23.20
2023-11-01T21:27:09.447Z,23.00
2023-11-01T21:29:37.308Z,22.80
2023-11-01T21:32:05.376Z,23.20
2023-11-01T21:34:33.135Z,23.10
2023-11-01T21:37:00.913Z,22.60
2023-11-01T21:39:29.690Z,21.80
2023-11-01T21:41:59.984Z,21.40
2023-11-01T21:44:35.226Z,21.90
2023-11-01T21:47:08.210Z,21.60
2023-11-01T21:49:36.422Z,21.50
2023-11-01T21:52:17.575Z,21.10
2023-11-01T21:54:49.219Z,20.90
2023-11-01T21:57:34.846Z,20.40
2023-11-01T22:00:09.962Z,19.90
2023-11-01T22:02:47.124Z,19.90
2023-11-01T22:05:19.628Z,20.00
2023-11-01T22:07:50.813Z,18.90
2023-11-01T22:10:20.994Z,19.00
2023-11-01T22:12:50.193Z,19.00
2023-11-01T22:15:20.459Z,18.60
2023-11-01T22:17:48.575Z,17.10
2023-11-01T22:20:24.431Z,18.20
2023-11-01T22:22:59.930Z,18.30
2023-11-01T22:25:33.755Z,18.30
2023-11-01T22:28:08.052Z,17.80
2023-11-01T22:30:37.322Z,18.20
2023-11-01T22:33:14.910Z,19.00
2023-11-01T22:35:44.447Z,17.30
2023-11-01T22:38:17.504Z,19.10
2023-11-01T22:40:48.018Z,18.20
2023-11-01T22:43:16.821Z,17.50
2023-11-01T22:45:45.284Z,17.80
2023-11-01T22:48:14.696Z,17.60
2023-11-01T22:50:42.967Z,17.40
2023-11-01T22:53:10.695Z,18.10
2023-11-01T22:55:41.696Z,17.40
2023-11-01T22:58:11.442Z,17.30
2023-11-01T23:00:39.694Z,17.00
2023-11-01T23:03:08.885Z,19.10
2023-11-01T23:05:38.199Z,19.00
2023-11-01T23:08:06.376Z,18.50
2023-11-01T23:10:36.079Z,18.50
2023-11-01T23:13:04.102Z,18.80
2023-11-01T23:15:32.004Z,18.70
2023-11-01T23:18:00.001Z,18.30
2023-11-01T23:20:28.472Z,17.70
2023-11-01T23:22:58.845Z,18.60
2023-11-01T23:25:33.096Z,17.80
2023-11-01T23:28:20.287Z,18.40
2023-11-01T23:30:51.267Z,18.60
2023-11-01T23:33:20.140Z,17.40
2023-11-01T23:35:48.221Z,17.80
2023-11-01T23:38:16.384Z,18.50
2023-11-01T23:40:44.182Z,17.90
2023-11-01T23:43:12.932Z,17.50
2023-11-01T23:45:40.635Z,16.90
2023-11-01T23:48:10.047Z,16.30
2023-11-01T23:50:45.407Z,17.50
2023-11-01T23:53:19.510Z,17.10
2023-11-01T23:55:50.816Z,17.50
2023-11-01T23:58:31.426Z,16.70
